Time;durP1;ratioP1;P1;durP2;ratioP2;P2;SDS_P1;SDS_P2;PMS_P1;PMS_P2;Temp;Humidity;BMP_temperature;BMP_pressure;BME280_temperature;BME280_humidity;BME280_pressure;Samples;Min_cycle;Max_cycle;Signal;HPM_P1;HPM_P2
2022/09/09 00:00:14;;;;;;;5.47;2.25;;;15.80;4.60;;;;;;7363201;19;20015;-68
2022/09/09 00:02:49;;;;;;;4.95;2.50;;;15.90;4.30;;;;;;7367040;19;20010;-68
2022/09/09 00:05:27;;;;;;;5.90;2.60;;;15.90;4.50;;;;;;7368973;19;20031;-67
2022/09/09 00:08:01;;;;;;;5.18;2.28;;;16.00;3.20;;;;;;7364423;19;20017;-68
2022/09/09 00:10:34;;;;;;;5.80;2.47;;;16.10;1.50;;;;;;7366131;19;20600;-68
2022/09/09 00:13:17;;;;;;;5.57;2.05;;;16.10;1.00;;;;;;7389190;19;20006;-68
2022/09/09 00:15:57;;;;;;;6.45;2.00;;;16.10;1.60;;;;;;7367728;19;20018;-68
2022/09/09 00:18:32;;;;;;;5.20;2.35;;;16.20;1.60;;;;;;7365198;19;20006;-68
2022/09/09 00:21:08;;;;;;;5.72;2.25;;;16.10;1.30;;;;;;7358933;19;20014;-69
2022/09/09 00:23:41;;;;;;;6.93;2.13;;;16.00;1.80;;;;;;7367287;19;20043;-67
2022/09/09 00:26:18;;;;;;;3.97;2.05;;;16.00;1.20;;;;;;7365572;19;20012;-68
2022/09/09 00:28:57;;;;;;;5.05;1.42;;;16.00;2.50;;;;;;7368337;19;20018;-68
2022/09/09 00:31:30;;;;;;;5.72;1.90;;;16.00;1.10;;;;;;7379636;19;20486;-68
2022/09/09 00:34:05;;;;;;;4.35;1.70;;;16.10;1.00;;;;;;7367737;19;20011;-68
2022/09/09 00:36:36;;;;;;;4.88;2.00;;;16.10;1.00;;;;;;7364047;19;20026;-68
2022/09/09 00:39:06;;;;;;;3.72;1.70;;;16.00;1.00;;;;;;7365113;19;20526;-68
2022/09/09 00:41:46;;;;;;;4.57;1.88;;;16.00;1.00;;;;;;7359610;19;20046;-68
2022/09/09 00:44:30;;;;;;;4.57;2.20;;;16.00;1.20;;;;;;7367966;19;20047;-68
2022/09/09 00:47:14;;;;;;;6.20;2.08;;;15.90;1.80;;;;;;7363239;19;20501;-68
2022/09/09 00:49:54;;;;;;;6.57;1.73;;;15.90;1.70;;;;;;7365437;19;20379;-68
2022/09/09 00:52:39;;;;;;;3.85;1.75;;;15.90;1.00;;;;;;7384447;19;20014;-68
2022/09/09 00:55:18;;;;;;;5.85;2.03;;;15.90;1.00;;;;;;7363668;19;20046;-68
2022/09/09 00:57:51;;;;;;;6.00;1.63;;;15.90;1.10;;;;;;7363306;19;20011;-68
2022/09/09 01:00:30;;;;;;;4.63;2.10;;;15.80;1.90;;;;;;7358624;19;20011;-66
2022/09/09 01:03:12;;;;;;;3.72;1.80;;;15.90;1.00;;;;;;7364208;19;20455;-67
2022/09/09 01:05:47;;;;;;;7.00;1.85;;;15.90;1.00;;;;;;7366360;19;20042;-67
2022/09/09 01:08:34;;;;;;;3.70;1.88;;;16.00;1.00;;;;;;7363705;19;20022;-67
2022/09/09 01:11:04;;;;;;;10.38;1.60;;;16.00;1.00;;;;;;7358226;19;20051;-68
2022/09/09 01:13:38;;;;;;;3.08;1.38;;;16.00;1.00;;;;;;7366002;19;20006;-68
2022/09/09 01:16:13;;;;;;;4.68;1.45;;;16.00;1.00;;;;;;7385321;19;20034;-68
2022/09/09 01:18:47;;;;;;;3.67;1.40;;;16.00;1.00;;;;;;7365038;19;20017;-68
2022/09/09 01:21:25;;;;;;;3.70;1.80;;;16.00;1.00;;;;;;7357319;19;20465;-68
2022/09/09 01:24:20;;;;;;;4.45;1.70;;;16.10;1.00;;;;;;7364589;19;20010;-67
2022/09/09 01:26:54;;;;;;;4.72;1.60;;;16.10;1.00;;;;;;7362441;19;20046;-67
2022/09/09 01:29:24;;;;;;;4.13;1.80;;;16.20;1.00;;;;;;7365347;19;20014;-67
2022/09/09 01:31:59;;;;;;;3.13;1.63;;;16.20;1.00;;;;;;7357670;19;20528;-68
2022/09/09 01:34:33;;;;;;;4.82;1.67;;;16.20;1.00;;;;;;7384161;19;20505;-68
2022/09/09 01:37:08;;;;;;;3.45;1.60;;;16.30;1.00;;;;;;7362941;19;20485;-68
2022/09/09 01:39:39;;;;;;;3.22;1.48;;;16.30;1.00;;;;;;7363648;19;20014;-67
2022/09/09 01:42:16;;;;;;;3.17;1.52;;;16.20;1.00;;;;;;7358021;19;20010;-68
2022/09/09 01:44:45;;;;;;;1.67;1.10;;;16.20;1.00;;;;;;7364941;19;20011;-67
2022/09/09 01:47:17;;;;;;;5.18;1.50;;;16.30;1.00;;;;;;7361400;19;20007;-67
2022/09/09 01:49:47;;;;;;;3.80;1.30;;;16.20;1.00;;;;;;7364731;19;20059;-67
2022/09/09 01:52:17;;;;;;;5.65;1.50;;;16.20;1.00;;;;;;7379943;19;20014;-68
2022/09/09 01:54:46;;;;;;;4.38;1.60;;;16.20;1.00;;;;;;7362930;19;20392;-67
2022/09/09 01:57:24;;;;;;;3.58;1.33;;;16.30;1.00;;;;;;7362161;19;20423;-68
2022/09/09 02:00:05;;;;;;;2.20;1.20;;;16.20;1.00;;;;;;7361673;19;20402;-68
2022/09/09 02:02:41;;;;;;;3.40;1.50;;;16.10;1.00;;;;;;7362281;19;20129;-68
2022/09/09 02:05:23;;;;;;;4.25;1.50;;;16.20;1.00;;;;;;7363404;19;20038;-68
2022/09/09 02:07:58;;;;;;;4.93;1.90;;;16.20;1.00;;;;;;7360713;19;20383;-68
2022/09/09 02:10:35;;;;;;;4.60;1.60;;;16.20;1.00;;;;;;7379159;19;20015;-68
2022/09/09 02:13:12;;;;;;;3.70;1.60;;;16.20;1.00;;;;;;7365132;19;20010;-68
2022/09/09 02:15:47;;;;;;;2.95;1.20;;;16.20;1.00;;;;;;7361714;19;20014;-69
2022/09/09 02:18:22;;;;;;;3.92;1.20;;;16.10;1.00;;;;;;7362278;19;20006;-67
2022/09/09 02:20:54;;;;;;;5.68;1.35;;;16.00;1.00;;;;;;7354892;19;20481;-67
2022/09/09 02:23:24;;;;;;;4.43;1.55;;;16.10;1.00;;;;;;7364210;19;20011;-67
2022/09/09 02:25:56;;;;;;;7.68;1.65;;;16.10;1.00;;;;;;7363462;19;20011;-67
2022/09/09 02:28:32;;;;;;;4.15;1.25;;;16.10;1.00;;;;;;7385069;19;20022;-67
2022/09/09 02:31:03;;;;;;;3.45;1.38;;;16.00;1.00;;;;;;7352719;19;20579;-67
2022/09/09 02:33:39;;;;;;;3.83;1.23;;;15.90;1.00;;;;;;7363616;19;20027;-67
2022/09/09 02:36:12;;;;;;;5.30;1.23;;;15.90;1.00;;;;;;7361781;19;20498;-67
2022/09/09 02:38:50;;;;;;;3.22;1.35;;;15.80;1.00;;;;;;7362772;19;20521;-67
2022/09/09 02:41:21;;;;;;;2.63;1.13;;;15.80;1.00;;;;;;7355863;19;20010;-68
2022/09/09 02:43:54;;;;;;;5.47;1.35;;;15.80;1.00;;;;;;7363363;19;20011;-68
2022/09/09 02:46:44;;;;;;;2.97;1.20;;;15.70;1.00;;;;;;7380223;19;20014;-68
2022/09/09 02:49:21;;;;;;;3.50;1.58;;;15.60;1.00;;;;;;7360767;19;20031;-68
2022/09/09 02:51:57;;;;;;;4.18;1.45;;;15.60;1.00;;;;;;7354650;19;20011;-67
2022/09/09 02:54:31;;;;;;;3.13;1.30;;;15.60;1.00;;;;;;7363439;19;20007;-68
2022/09/09 02:57:06;;;;;;;5.10;1.48;;;15.50;1.60;;;;;;7359571;19;20022;-68
2022/09/09 02:59:39;;;;;;;2.30;1.10;;;15.50;2.50;;;;;;7361976;19;20007;-68
2022/09/09 03:02:11;;;;;;;6.60;1.60;;;15.40;2.70;;;;;;7355410;19;20018;-68
2022/09/09 03:04:41;;;;;;;3.38;1.52;;;15.40;1.80;;;;;;7362549;19;20031;-68
2022/09/09 03:07:11;;;;;;;4.40;1.15;;;15.40;2.60;;;;;;7380152;19;20018;-68
2022/09/09 03:09:41;;;;;;;3.08;1.35;;;15.30;2.70;;;;;;7360147;19;20010;-68
2022/09/09 03:12:12;;;;;;;5.45;1.40;;;15.30;2.40;;;;;;7355261;19;20002;-68
2022/09/09 03:14:45;;;;;;;4.30;1.65;;;15.30;3.90;;;;;;7361610;19;20038;-68
2022/09/09 03:17:15;;;;;;;2.47;1.20;;;15.20;3.90;;;;;;7360123;19;20010;-68
2022/09/09 03:19:45;;;;;;;5.00;1.30;;;15.10;5.20;;;;;;7369098;19;20018;-68
2022/09/09 03:22:15;;;;;;;6.03;1.30;;;15.10;6.00;;;;;;7384101;19;20038;-67
2022/09/09 03:24:46;;;;;;;2.75;1.15;;;15.10;5.50;;;;;;7369442;19;20034;-67
2022/09/09 03:27:17;;;;;;;4.00;1.25;;;15.10;5.20;;;;;;7364020;19;20006;-67
2022/09/09 03:29:51;;;;;;;5.90;1.67;;;15.10;5.60;;;;;;7367016;19;20368;-68
2022/09/09 03:32:22;;;;;;;3.92;1.58;;;15.10;5.10;;;;;;7364217;19;20010;-68
2022/09/09 03:34:52;;;;;;;3.65;1.42;;;15.20;4.60;;;;;;7368778;19;20014;-68
2022/09/09 03:37:22;;;;;;;2.92;1.17;;;15.20;3.90;;;;;;7387023;19;20034;-67
2022/09/09 03:39:54;;;;;;;2.83;1.40;;;15.10;4.30;;;;;;7367204;19;20010;-67
2022/09/09 03:42:24;;;;;;;3.75;1.70;;;15.10;5.10;;;;;;7363459;19;20022;-68
2022/09/09 03:44:57;;;;;;;4.60;1.63;;;15.20;3.80;;;;;;7367718;19;20015;-67
2022/09/09 03:47:27;;;;;;;3.78;1.35;;;15.20;3.80;;;;;;7366001;19;20010;-66
2022/09/09 03:49:57;;;;;;;4.20;1.90;;;15.20;3.80;;;;;;7364054;19;20061;-68
2022/09/09 03:52:27;;;;;;;4.95;1.50;;;15.20;3.80;;;;;;7386717;19;20031;-67
2022/09/09 03:54:56;;;;;;;4.35;1.88;;;15.20;3.70;;;;;;7368562;19;20796;-67
2022/09/09 03:57:26;;;;;;;5.20;2.15;;;15.30;2.60;;;;;;7365347;19;20030;-67
2022/09/09 04:00:00;;;;;;;3.15;1.50;;;15.20;3.90;;;;;;7364454;19;20022;-68
2022/09/09 04:02:30;;;;;;;5.13;1.63;;;15.30;3.90;;;;;;7364937;19;20502;-67
2022/09/09 04:05:00;;;;;;;5.07;1.60;;;15.30;3.90;;;;;;7367891;19;20588;-67
2022/09/09 04:07:30;;;;;;;3.40;1.73;;;15.40;3.20;;;;;;7377637;19;20018;-68
2022/09/09 04:10:00;;;;;;;4.90;1.60;;;15.40;2.60;;;;;;7383560;19;20651;-67
2022/09/09 04:12:30;;;;;;;4.03;2.10;;;15.40;3.70;;;;;;7364468;19;20010;-67
2022/09/09 04:15:02;;;;;;;4.68;1.92;;;15.40;1.90;;;;;;7366231;19;20010;-67
2022/09/09 04:17:33;;;;;;;6.75;2.08;;;15.50;2.40;;;;;;7364694;19;20014;-67
2022/09/09 04:20:03;;;;;;;4.35;1.88;;;15.40;2.40;;;;;;7363442;19;20010;-67
2022/09/09 04:22:34;;;;;;;4.72;1.42;;;15.50;2.80;;;;;;7362676;19;20018;-67
2022/09/09 04:25:03;;;;;;;3.40;1.55;;;15.50;2.00;;;;;;7388220;19;20022;-67
2022/09/09 04:27:33;;;;;;;4.13;1.42;;;15.50;2.20;;;;;;7363737;19;20018;-67
2022/09/09 04:30:06;;;;;;;5.55;1.98;;;15.40;1.60;;;;;;7357612;19;20063;-67
2022/09/09 04:32:36;;;;;;;3.55;1.67;;;15.50;1.70;;;;;;7364917;19;20018;-68
2022/09/09 04:35:07;;;;;;;4.63;1.80;;;15.50;1.50;;;;;;7367072;19;20372;-69
2022/09/09 04:37:36;;;;;;;6.82;1.38;;;15.60;1.20;;;;;;7364403;19;20025;-68
2022/09/09 04:40:09;;;;;;;7.63;1.60;;;15.60;1.00;;;;;;7383439;19;20029;-67
2022/09/09 04:42:43;;;;;;;2.17;1.10;;;15.80;1.00;;;;;;7364902;19;20021;-69
2022/09/09 04:45:16;;;;;;;4.93;1.27;;;15.90;1.00;;;;;;7366836;19;20474;-67
2022/09/09 04:47:46;;;;;;;3.25;1.45;;;15.90;1.00;;;;;;7364128;19;20044;-67
2022/09/09 04:50:16;;;;;;;3.50;1.30;;;15.90;1.00;;;;;;7358028;19;20007;-67
2022/09/09 04:52:46;;;;;;;7.03;1.67;;;15.90;1.00;;;;;;7367598;19;20729;-67
2022/09/09 04:55:16;;;;;;;4.10;1.90;;;15.90;1.00;;;;;;7388056;19;20022;-67
2022/09/09 04:57:46;;;;;;;3.25;1.50;;;15.90;1.00;;;;;;7362257;19;20435;-68
2022/09/09 05:00:19;;;;;;;5.13;2.00;;;15.80;1.00;;;;;;7358538;19;20624;-67
2022/09/09 05:02:49;;;;;;;3.60;1.92;;;15.70;1.00;;;;;;7366682;19;20509;-68
2022/09/09 05:05:19;;;;;;;4.85;1.65;;;15.70;1.00;;;;;;7365379;19;20608;-68
2022/09/09 05:07:49;;;;;;;8.05;1.80;;;15.70;1.00;;;;;;7361525;19;20029;-68
2022/09/09 05:10:19;;;;;;;6.25;1.90;;;15.70;1.00;;;;;;7379197;19;20363;-67
2022/09/09 05:12:56;;;;;;;2.88;1.58;;;15.70;1.00;;;;;;7364210;19;20410;-68
2022/09/09 05:15:28;;;;;;;5.63;1.90;;;15.60;1.50;;;;;;7364712;19;20022;-66
2022/09/09 05:18:00;;;;;;;5.03;1.75;;;15.70;1.00;;;;;;7363745;19;20010;-68
2022/09/09 05:20:30;;;;;;;6.38;1.70;;;16.40;1.00;;;;;;7356504;19;20010;-68
2022/09/09 05:23:00;;;;;;;3.40;1.70;;;16.30;1.00;;;;;;7365271;19;20018;-67
2022/09/09 05:25:30;;;;;;;6.32;2.08;;;16.00;1.00;;;;;;7386020;19;20449;-67
2022/09/09 05:28:01;;;;;;;6.53;2.20;;;15.80;1.00;;;;;;7361338;19;20383;-67
2022/09/09 05:30:33;;;;;;;4.10;1.85;;;15.90;1.00;;;;;;7355581;19;20698;-67
2022/09/09 05:33:03;;;;;;;4.60;1.70;;;16.00;1.30;;;;;;7364289;19;20394;-67
2022/09/09 05:35:33;;;;;;;5.47;2.05;;;16.00;1.00;;;;;;7363402;19;20011;-68
2022/09/09 05:38:03;;;;;;;3.38;1.80;;;16.00;1.00;;;;;;7364697;19;20010;-68
2022/09/09 05:40:32;;;;;;;4.85;2.30;;;16.10;1.10;;;;;;7355462;19;20006;-68
2022/09/09 05:43:04;;;;;;;2.83;1.80;;;16.10;1.00;;;;;;7385487;19;20126;-67
2022/09/09 05:45:36;;;;;;;3.67;2.10;;;16.20;1.00;;;;;;7363915;19;20049;-67
2022/09/09 05:48:07;;;;;;;3.85;1.80;;;16.30;1.00;;;;;;7363911;19;20501;-67
2022/09/09 05:50:37;;;;;;;4.03;1.55;;;16.40;1.00;;;;;;7354885;19;20017;-68
2022/09/09 05:53:07;;;;;;;3.53;1.60;;;16.40;1.00;;;;;;7364051;19;20013;-67
2022/09/09 05:55:36;;;;;;;4.38;1.58;;;16.50;1.00;;;;;;7362108;19;20014;-67
2022/09/09 05:58:06;;;;;;;5.28;1.73;;;16.50;1.00;;;;;;7385175;19;20023;-67
2022/09/09 06:00:39;;;;;;;5.13;1.67;;;16.60;1.00;;;;;;7355235;19;20463;-67
2022/09/09 06:03:08;;;;;;;5.18;1.67;;;16.60;1.00;;;;;;7363957;19;20013;-68
2022/09/09 06:05:38;;;;;;;9.20;1.95;;;16.70;1.00;;;;;;7360854;19;20018;-69
2022/09/09 06:08:08;;;;;;;6.90;2.00;;;16.80;1.00;;;;;;7361157;19;20027;-67
2022/09/09 06:10:38;;;;;;;3.95;1.45;;;17.00;1.00;;;;;;7354022;19;20569;-68
2022/09/09 06:13:09;;;;;;;5.00;1.48;;;16.90;1.00;;;;;;7383800;19;20019;-68
2022/09/09 06:15:42;;;;;;;2.70;1.30;;;16.90;1.00;;;;;;7359209;19;20021;-68
2022/09/09 06:18:12;;;;;;;6.50;1.60;;;16.90;1.00;;;;;;7363864;19;20010;-68
2022/09/09 06:20:41;;;;;;;3.85;1.30;;;16.90;1.00;;;;;;7355047;19;20018;-68
2022/09/09 06:23:12;;;;;;;6.07;1.38;;;16.90;1.00;;;;;;7363399;19;20035;-67
2022/09/09 06:25:42;;;;;;;3.25;1.42;;;16.90;1.00;;;;;;7360442;19;20024;-67
2022/09/09 06:28:11;;;;;;;5.22;1.75;;;17.00;1.00;;;;;;7383087;19;20462;-67
2022/09/09 06:30:44;;;;;;;3.95;1.65;;;17.10;1.00;;;;;;7353835;19;20490;-68
2022/09/09 06:33:14;;;;;;;2.50;1.13;;;17.10;1.00;;;;;;7364199;19;19999;-69
2022/09/09 06:35:44;;;;;;;3.78;1.33;;;17.30;1.00;;;;;;7360232;19;20022;-68
2022/09/09 06:38:14;;;;;;;3.70;1.10;;;17.40;1.00;;;;;;7363127;19;20386;-67
2022/09/09 06:40:44;;;;;;;4.90;1.58;;;17.50;1.00;;;;;;7354846;19;20367;-67
2022/09/09 06:43:14;;;;;;;5.10;1.90;;;17.40;1.00;;;;;;7384195;19;20002;-68
2022/09/09 06:45:46;;;;;;;6.03;1.63;;;17.40;1.00;;;;;;7359552;19;20102;-67
2022/09/09 06:48:16;;;;;;;12.27;3.90;;;17.40;1.00;;;;;;7360845;19;20038;-68
2022/09/09 06:50:46;;;;;;;4.97;1.98;;;17.30;1.00;;;;;;7351114;19;20038;-69
2022/09/09 06:53:19;;;;;;;6.88;1.95;;;17.60;1.00;;;;;;7364944;19;20011;-67
2022/09/09 06:55:49;;;;;;;4.55;1.70;;;17.70;1.00;;;;;;7365980;19;20011;-67
2022/09/09 06:58:19;;;;;;;3.55;1.80;;;17.80;1.00;;;;;;7390121;19;20010;-67
2022/09/09 07:00:52;;;;;;;6.93;1.85;;;17.80;1.00;;;;;;7360241;19;20014;-68
2022/09/09 07:03:22;;;;;;;4.55;1.70;;;17.90;1.00;;;;;;7366214;19;20082;-67
2022/09/09 07:05:57;;;;;;;3.85;1.65;;;18.00;1.00;;;;;;7366429;19;20010;-69
2022/09/09 07:08:28;;;;;;;4.28;1.40;;;18.00;1.00;;;;;;7367624;19;20010;-68
2022/09/09 07:11:04;;;;;;;5.18;1.58;;;18.00;1.00;;;;;;7357883;19;20101;-68
2022/09/09 07:13:41;;;;;;;6.65;1.60;;;18.00;1.00;;;;;;7367095;19;20015;-68
2022/09/09 07:16:16;;;;;;;7.95;1.73;;;18.30;1.00;;;;;;7387542;19;20022;-68
2022/09/09 07:18:46;;;;;;;3.15;1.25;;;18.10;1.00;;;;;;7366684;19;20011;-68
2022/09/09 07:21:17;;;;;;;2.42;0.85;;;18.20;1.00;;;;;;7359284;19;20014;-68
2022/09/09 07:23:49;;;;;;;2.60;0.98;;;18.40;1.00;;;;;;7368169;19;20401;-68
2022/09/09 07:26:21;;;;;;;2.85;0.90;;;18.60;1.00;;;;;;7363440;19;20017;-68
2022/09/09 07:28:51;;;;;;;3.55;1.30;;;18.80;1.00;;;;;;7366580;19;20004;-68
2022/09/09 07:31:26;;;;;;;2.35;1.05;;;18.80;1.00;;;;;;7379699;19;20038;-68
2022/09/09 07:33:56;;;;;;;3.78;1.00;;;18.80;1.00;;;;;;7367649;19;20007;-70
2022/09/09 07:36:27;;;;;;;5.32;1.38;;;18.80;1.00;;;;;;7363498;19;20011;-67
2022/09/09 07:39:04;;;;;;;2.78;1.23;;;18.90;1.00;;;;;;7367902;19;20010;-69
2022/09/09 07:41:36;;;;;;;2.88;1.17;;;18.70;1.00;;;;;;7359698;19;20022;-69
2022/09/09 07:44:10;;;;;;;2.40;1.20;;;18.70;1.00;;;;;;7370523;19;20686;-68
2022/09/09 07:46:44;;;;;;;3.83;1.30;;;18.70;1.00;;;;;;7365339;19;20022;-69
2022/09/09 07:49:15;;;;;;;3.60;1.20;;;18.80;1.00;;;;;;7388421;19;20027;-69
2022/09/09 07:51:47;;;;;;;18.77;10.68;;;18.90;1.00;;;;;;7357173;19;20111;-69
2022/09/09 07:54:20;;;;;;;2.97;1.20;;;19.00;1.00;;;;;;7367436;19;20014;-68
2022/09/09 07:56:50;;;;;;;3.47;0.88;;;19.00;1.00;;;;;;7362748;19;20478;-68
2022/09/09 07:59:19;;;;;;;3.30;1.20;;;19.10;1.00;;;;;;7367820;19;20011;-67
2022/09/09 08:01:54;;;;;;;2.10;1.08;;;19.40;1.00;;;;;;7359458;19;20011;-69
2022/09/09 08:04:26;;;;;;;4.88;1.00;;;19.70;1.00;;;;;;7388781;19;20601;-69
2022/09/09 08:06:58;;;;;;;3.17;1.00;;;19.80;1.00;;;;;;7361384;19;20010;-68
2022/09/09 08:09:32;;;;;;;2.78;1.05;;;20.10;1.00;;;;;;7365908;19;20011;-68
2022/09/09 08:12:02;;;;;;;4.63;1.07;;;19.80;1.00;;;;;;7356842;19;20090;-69
2022/09/09 08:14:32;;;;;;;7.30;1.38;;;19.90;1.00;;;;;;7368004;19;20586;-68
2022/09/09 08:17:04;;;;;;;5.88;1.30;;;19.90;1.00;;;;;;7361503;19;20738;-67
2022/09/09 08:19:35;;;;;;;6.18;1.33;;;19.80;1.00;;;;;;7365664;19;20018;-68
2022/09/09 08:22:05;;;;;;;4.53;0.90;;;20.00;1.00;;;;;;7380878;19;20014;-68
2022/09/09 08:24:35;;;;;;;3.28;0.90;;;20.10;1.00;;;;;;7364864;19;20039;-68
2022/09/09 08:27:06;;;;;;;2.28;0.90;;;20.10;1.00;;;;;;7361499;19;20014;-69
2022/09/09 08:29:37;;;;;;;3.05;1.10;;;20.30;1.00;;;;;;7366726;19;20046;-69
2022/09/09 08:32:10;;;;;;;4.40;1.30;;;20.60;1.00;;;;;;7357360;19;20003;-68
2022/09/09 08:34:40;;;;;;;2.88;1.15;;;20.70;1.00;;;;;;7366879;19;20006;-68
2022/09/09 08:37:10;;;;;;;4.90;0.90;;;21.00;1.00;;;;;;7382980;19;20018;-69
2022/09/09 08:39:39;;;;;;;3.65;0.85;;;21.20;1.00;;;;;;7363965;19;20036;-68
2022/09/09 08:42:27;;;;;;;5.00;1.10;;;21.20;1.00;;;;;;7358575;19;20094;-68
2022/09/09 08:45:13;;;;;;;5.07;1.55;;;21.10;1.00;;;;;;7366376;19;20155;-68
2022/09/09 08:47:57;;;;;;;1.80;0.80;;;21.30;1.00;;;;;;7361842;19;20018;-69
2022/09/09 08:50:29;;;;;;;3.95;0.80;;;21.40;1.00;;;;;;7358567;19;21327;-68
2022/09/09 08:53:05;;;;;;;3.25;0.98;;;21.30;1.00;;;;;;7362990;19;20411;-67
2022/09/09 08:55:43;;;;;;;2.63;0.70;;;21.50;1.00;;;;;;7363813;19;20026;-68
2022/09/09 08:58:17;;;;;;;3.00;0.82;;;21.60;1.00;;;;;;7387013;19;20480;-68
2022/09/09 09:01:08;;;;;;;3.28;0.80;;;21.80;1.00;;;;;;7358445;19;20352;-68
2022/09/09 09:03:50;;;;;;;3.53;1.08;;;21.70;1.00;;;;;;7364299;19;20714;-69
2022/09/09 09:06:34;;;;;;;3.35;0.70;;;22.10;1.00;;;;;;7361340;19;20459;-69
2022/09/09 09:09:08;;;;;;;3.28;0.70;;;21.80;1.00;;;;;;7363821;19;20017;-69
2022/09/09 09:11:40;;;;;;;2.97;1.20;;;22.10;1.00;;;;;;7357525;19;20015;-69
2022/09/09 09:14:15;;;;;;;5.28;0.88;;;22.60;1.00;;;;;;7367636;19;20010;-69
2022/09/09 09:16:53;;;;;;;2.45;0.80;;;22.80;1.00;;;;;;7359559;19;20011;-68
2022/09/09 09:19:26;;;;;;;6.43;1.15;;;23.00;1.00;;;;;;7386543;19;20038;-68
2022/09/09 09:22:03;;;;;;;3.78;1.05;;;22.50;1.00;;;;;;7357693;19;20014;-68
2022/09/09 09:24:44;;;;;;;2.80;0.80;;;21.90;1.00;;;;;;7365092;19;20045;-68
2022/09/09 09:27:16;;;;;;;4.93;1.00;;;21.20;1.00;;;;;;7360196;19;20466;-68
2022/09/09 09:29:49;;;;;;;3.38;0.80;;;21.40;1.00;;;;;;7362884;19;20014;-68
2022/09/09 09:32:41;;;;;;;3.58;0.73;;;21.50;1.00;;;;;;7361583;19;20018;-69
2022/09/09 09:35:16;;;;;;;3.85;0.85;;;21.80;1.00;;;;;;7362591;19;20533;-69
2022/09/09 09:37:46;;;;;;;4.82;0.70;;;21.80;1.00;;;;;;7361602;19;20038;-69
2022/09/09 09:40:36;;;;;;;4.20;0.90;;;21.60;1.00;;;;;;7353634;19;20040;-69
2022/09/09 09:43:08;;;;;;;3.63;0.85;;;21.60;1.00;;;;;;7384552;19;20014;-68
2022/09/09 09:45:45;;;;;;;6.93;1.23;;;21.90;1.00;;;;;;7362490;19;20372;-69
2022/09/09 09:48:30;;;;;;;5.53;3.58;;;22.00;1.00;;;;;;7363652;19;20465;-69
2022/09/09 09:51:07;;;;;;;3.08;1.02;;;22.30;1.00;;;;;;7355910;19;20006;-69
2022/09/09 09:53:39;;;;;;;2.92;0.95;;;22.60;1.00;;;;;;7362964;19;20475;-68
2022/09/09 09:56:11;;;;;;;4.93;0.98;;;22.60;1.00;;;;;;7361571;19;20014;-69
2022/09/09 09:58:53;;;;;;;3.75;1.00;;;22.80;1.00;;;;;;7365031;19;20022;-68
2022/09/09 10:01:27;;;;;;;7.57;0.95;;;22.90;1.00;;;;;;7373005;19;20474;-68
2022/09/09 10:04:05;;;;;;;6.40;2.97;;;22.90;1.00;;;;;;7363989;19;20014;-69
2022/09/09 10:06:40;;;;;;;2.53;0.93;;;23.00;1.00;;;;;;7359307;19;20015;-68
2022/09/09 10:09:24;;;;;;;4.00;1.40;;;23.20;1.00;;;;;;7362210;19;20082;-69
2022/09/09 10:11:58;;;;;;;;;;;23.40;1.00;;;;;;7361917;19;20062;-68
2022/09/09 10:14:37;;;;;;;4.13;1.00;;;23.20;1.00;;;;;;7363878;19;19946;-67
2022/09/09 10:17:28;;;;;;;1.98;0.90;;;23.20;1.00;;;;;;7358487;19;20018;-69
2022/09/09 10:20:19;;;;;;;2.22;0.88;;;22.80;1.00;;;;;;7360328;19;20038;-69
2022/09/09 10:22:54;;;;;;;1.88;0.80;;;23.10;1.00;;;;;;7360104;19;20029;-69
2022/09/09 10:25:47;;;;;;;1.50;0.70;;;23.10;1.00;;;;;;7382302;19;20011;-70
2022/09/09 10:28:34;;;;;;;1.80;0.98;;;23.40;1.00;;;;;;7370021;19;20037;-68
2022/09/09 10:31:17;;;;;;;4.38;0.90;;;23.20;1.00;;;;;;7365356;19;20106;-69
2022/09/09 10:33:53;;;;;;;2.63;0.88;;;23.50;1.00;;;;;;7362482;19;20018;-68
2022/09/09 10:36:25;;;;;;;2.03;0.60;;;23.80;1.00;;;;;;7363720;19;20050;-68
2022/09/09 10:39:03;;;;;;;2.45;0.70;;;24.00;1.00;;;;;;7369759;19;20017;-68
2022/09/09 10:41:48;;;;;;;4.13;0.85;;;23.60;1.00;;;;;;7363033;19;20030;-69
2022/09/09 10:44:34;;;;;;;2.22;0.70;;;23.50;1.00;;;;;;7369198;19;20506;-69
2022/09/09 10:47:20;;;;;;;2.25;0.90;;;22.60;1.00;;;;;;7365311;19;20040;-68
2022/09/09 10:50:15;;;;;;;3.00;0.93;;;22.00;1.00;;;;;;7370125;19;20031;-68
2022/09/09 10:52:55;;;;;;;2.63;0.60;;;21.20;1.00;;;;;;7362918;19;20100;-67
2022/09/09 10:55:36;;;;;;;7.25;0.75;;;21.20;1.00;;;;;;7389421;19;20518;-68
2022/09/09 10:58:08;;;;;;;4.18;0.88;;;21.30;1.00;;;;;;7367193;19;20010;-68
2022/09/09 11:00:42;;;;;;;1.65;0.68;;;21.30;1.00;;;;;;7363112;19;20070;-67
2022/09/09 11:03:22;;;;;;;3.20;1.05;;;21.60;1.00;;;;;;7363237;19;20015;-68
2022/09/09 11:05:57;;;;;;;3.85;0.88;;;21.10;1.00;;;;;;7366630;19;20095;-68
2022/09/09 11:08:29;;;;;;;3.55;0.85;;;21.20;1.00;;;;;;7368089;19;20014;-68
2022/09/09 11:11:05;;;;;;;2.78;1.25;;;21.00;1.00;;;;;;7365763;19;20015;-67
2022/09/09 11:13:42;;;;;;;3.17;1.00;;;20.90;1.00;;;;;;7362297;19;20022;-68
2022/09/09 11:16:26;;;;;;;3.83;1.00;;;20.70;1.00;;;;;;7386588;19;20034;-67
2022/09/09 11:19:02;;;;;;;2.63;0.93;;;20.60;1.00;;;;;;7368033;19;20006;-69
2022/09/09 11:21:37;;;;;;;4.82;0.90;;;20.30;1.00;;;;;;7360504;19;20376;-67
2022/09/09 11:24:13;;;;;;;3.50;1.35;;;20.20;1.00;;;;;;7367244;19;20376;-69
2022/09/09 11:26:50;;;;;;;4.65;0.90;;;19.80;1.00;;;;;;7363494;19;20035;-69
2022/09/09 11:29:50;;;;;;;4.43;1.17;;;19.30;1.00;;;;;;7367659;19;20478;-67
2022/09/09 11:32:44;;;;;;;4.07;1.05;;;18.70;1.00;;;;;;7363127;19;20006;-68
2022/09/09 11:35:29;;;;;;;5.53;0.98;;;18.80;1.00;;;;;;7366889;19;20472;-69
2022/09/09 11:38:22;;;;;;;7.82;1.17;;;18.60;1.00;;;;;;7363833;19;20798;-66
2022/09/09 11:41:00;;;;;;;2.05;1.10;;;18.70;1.00;;;;;;7364220;19;20019;-68
2022/09/09 11:43:35;;;;;;;2.13;0.90;;;18.70;1.00;;;;;;7385431;19;20026;-69
2022/09/09 11:46:07;;;;;;;3.03;0.90;;;18.50;1.00;;;;;;7364361;19;20014;-68
2022/09/09 11:48:38;;;;;;;2.75;0.73;;;18.80;1.00;;;;;;7365503;19;20025;-68
2022/09/09 11:51:10;;;;;;;2.80;1.00;;;19.00;1.00;;;;;;7364257;19;20017;-68
2022/09/09 11:53:53;;;;;;;1.83;0.65;;;19.20;1.00;;;;;;7358689;19;20021;-68
2022/09/09 11:56:29;;;;;;;1.30;0.40;;;19.30;1.00;;;;;;7363756;19;20943;-68
2022/09/09 11:59:07;;;;;;;1.00;0.52;;;19.20;1.00;;;;;;7366160;19;20014;-68
2022/09/09 12:01:39;;;;;;;2.80;1.00;;;19.20;1.00;;;;;;7359959;19;20085;-69
2022/09/09 12:04:19;;;;;;;1.33;0.57;;;19.50;1.00;;;;;;7388285;19;20033;-69
2022/09/09 12:06:55;;;;;;;1.10;0.60;;;19.60;1.00;;;;;;7360337;19;20023;-68
2022/09/09 12:09:31;;;;;;;1.48;0.50;;;19.60;1.00;;;;;;7364638;19;20014;-68
2022/09/09 12:12:28;;;;;;;2.47;0.60;;;20.30;1.00;;;;;;7360120;19;20010;-69
2022/09/09 12:15:03;;;;;;;2.10;0.60;;;20.30;1.00;;;;;;7363839;19;20018;-69
2022/09/09 12:17:39;;;;;;;0.80;0.40;;;20.60;1.00;;;;;;7362653;19;20427;-69
2022/09/09 12:20:17;;;;;;;0.65;0.38;;;21.00;1.00;;;;;;7362735;19;20030;-69
2022/09/09 12:23:15;;;;;;;1.27;0.35;;;20.80;1.00;;;;;;7362397;19;20018;-69
2022/09/09 12:26:06;;;;;;;2.08;0.63;;;21.10;1.00;;;;;;7364617;19;20054;-68
2022/09/09 12:28:47;;;;;;;1.42;0.50;;;21.80;1.00;;;;;;7364600;19;20022;-69
2022/09/09 12:31:26;;;;;;;1.10;0.30;;;22.00;1.00;;;;;;7384262;19;20709;-69
2022/09/09 12:33:56;;;;;;;2.53;0.80;;;22.20;1.00;;;;;;7362826;19;20006;-69
2022/09/09 12:36:31;;;;;;;1.33;0.50;;;22.10;1.00;;;;;;7359397;19;20010;-69
2022/09/09 12:39:12;;;;;;;1.95;0.57;;;21.80;1.00;;;;;;7364861;19;20134;-69
2022/09/09 12:41:42;;;;;;;2.28;0.57;;;22.10;1.00;;;;;;7358177;19;20014;-69
2022/09/09 12:44:12;;;;;;;2.38;0.40;;;22.20;1.00;;;;;;7363573;19;20545;-69
2022/09/09 12:46:48;;;;;;;2.72;0.70;;;22.60;1.00;;;;;;7359933;19;20022;-68
2022/09/09 12:49:33;;;;;;;1.08;0.40;;;22.40;1.00;;;;;;7383010;19;20083;-69
2022/09/09 12:52:07;;;;;;;3.22;0.60;;;22.50;1.00;;;;;;7355152;19;20018;-69
2022/09/09 12:54:39;;;;;;;2.35;0.60;;;22.20;1.00;;;;;;7364991;19;20035;-68
2022/09/09 12:57:14;;;;;;;2.33;0.55;;;22.20;1.00;;;;;;7360640;19;20014;-68
2022/09/09 12:59:48;;;;;;;1.48;0.70;;;22.10;1.00;;;;;;7362914;19;20483;-68
2022/09/09 13:02:25;;;;;;;4.50;0.70;;;22.50;1.00;;;;;;7358364;19;20011;-68
2022/09/09 13:04:55;;;;;;;1.98;0.55;;;22.30;1.00;;;;;;7364163;19;20206;-68
2022/09/09 13:07:26;;;;;;;2.15;0.50;;;22.20;1.00;;;;;;7382113;19;20473;-68
2022/09/09 13:09:55;;;;;;;1.33;0.40;;;22.30;1.00;;;;;;7362771;19;20011;-69
2022/09/09 13:12:26;;;;;;;3.58;0.60;;;22.40;1.00;;;;;;7359781;19;20379;-68
2022/09/09 13:14:58;;;;;;;3.97;0.68;;;22.60;1.00;;;;;;7363834;19;20014;-68
2022/09/09 13:17:31;;;;;;;0.88;0.40;;;22.60;1.00;;;;;;7361625;19;20010;-68
2022/09/09 13:20:02;;;;;;;0.88;0.40;;;22.60;1.00;;;;;;7361341;19;20470;-68
2022/09/09 13:22:36;;;;;;;4.03;0.63;;;22.80;1.00;;;;;;7360566;19;20042;-70
2022/09/09 13:25:19;;;;;;;1.40;0.40;;;23.10;1.00;;;;;;7385377;19;20462;-68
2022/09/09 13:27:56;;;;;;;1.75;0.52;;;23.00;1.00;;;;;;7360389;19;20019;-69
2022/09/09 13:30:32;;;;;;;1.52;0.50;;;22.90;1.00;;;;;;7359149;19;20111;-69
2022/09/09 13:33:22;;;;;;;3.88;0.80;;;23.50;1.00;;;;;;7359423;19;20122;-69
2022/09/09 13:35:56;;;;;;;2.70;0.68;;;23.30;1.00;;;;;;7360548;19;20014;-69